sensor_id;sensor_type;location;lat;lon;timestamp;temperature;humidity
25550;DHT22;13444;50.562;7.262;2024-02-28T00:00:26;6.20;99.90
25550;DHT22;13444;50.562;7.262;2024-02-28T00:02:52;6.20;99.90
25550;DHT22;13444;50.562;7.262;2024-02-28T00:05:17;6.20;99.90
25550;DHT22;13444;50.562;7.262;2024-02-28T00:07:43;6.20;99.90
25550;DHT22;13444;50.562;7.262;2024-02-28T00:10:10;6.20;99.90
25550;DHT22;13444;50.562;7.262;2024-02-28T00:12:36;6.20;99.90
25550;DHT22;13444;50.562;7.262;2024-02-28T00:15:01;6.20;99.90
25550;DHT22;13444;50.562;7.262;2024-02-28T00:17:27;6.20;99.90
25550;DHT22;13444;50.562;7.262;2024-02-28T00:19:52;6.20;99.90
25550;DHT22;13444;50.562;7.262;2024-02-28T00:22:18;6.20;99.90
25550;DHT22;13444;50.562;7.262;2024-02-28T00:24:44;6.20;99.90
25550;DHT22;13444;50.562;7.262;2024-02-28T00:27:12;6.20;99.90
25550;DHT22;13444;50.562;7.262;2024-02-28T00:29:37;6.20;99.90
25550;DHT22;13444;50.562;7.262;2024-02-28T00:32:03;6.20;99.90
25550;DHT22;13444;50.562;7.262;2024-02-28T00:34:28;6.20;99.90
25550;DHT22;13444;50.562;7.262;2024-02-28T00:36:54;6.20;99.90
25550;DHT22;13444;50.562;7.262;2024-02-28T00:39:19;6.20;99.90
25550;DHT22;13444;50.562;7.262;2024-02-28T00:41:45;6.20;99.90
25550;DHT22;13444;50.562;7.262;2024-02-28T00:44:10;6.20;99.90
25550;DHT22;13444;50.562;7.262;2024-02-28T00:46:36;6.20;99.90
25550;DHT22;13444;50.562;7.262;2024-02-28T00:49:02;6.10;99.90
25550;DHT22;13444;50.562;7.262;2024-02-28T00:51:27;6.10;99.90
25550;DHT22;13444;50.562;7.262;2024-02-28T00:53:53;6.10;99.90
25550;DHT22;13444;50.562;7.262;2024-02-28T00:56:18;6.20;99.90
25550;DHT22;13444;50.562;7.262;2024-02-28T00:58:44;6.10;99.90
25550;DHT22;13444;50.562;7.262;2024-02-28T01:01:09;6.10;99.90
25550;DHT22;13444;50.562;7.262;2024-02-28T01:03:35;6.10;99.90
25550;DHT22;13444;50.562;7.262;2024-02-28T01:06:01;6.10;99.90
25550;DHT22;13444;50.562;7.262;2024-02-28T01:08:26;6.00;99.90
25550;DHT22;13444;50.562;7.262;2024-02-28T01:10:52;6.00;99.90
25550;DHT22;13444;50.562;7.262;2024-02-28T01:13:18;5.90;99.90
25550;DHT22;13444;50.562;7.262;2024-02-28T01:15:43;5.90;99.90
25550;DHT22;13444;50.562;7.262;2024-02-28T01:18:09;5.90;99.90
25550;DHT22;13444;50.562;7.262;2024-02-28T01:20:35;5.90;99.90
25550;DHT22;13444;50.562;7.262;2024-02-28T01:23:01;5.90;99.90
25550;DHT22;13444;50.562;7.262;2024-02-28T01:25:26;5.90;99.90
25550;DHT22;13444;50.562;7.262;2024-02-28T01:27:52;5.90;99.90
25550;DHT22;13444;50.562;7.262;2024-02-28T01:30:17;5.90;99.90
25550;DHT22;13444;50.562;7.262;2024-02-28T01:32:44;5.90;99.90
25550;DHT22;13444;50.562;7.262;2024-02-28T01:35:09;5.90;99.90
25550;DHT22;13444;50.562;7.262;2024-02-28T01:37:35;5.90;99.90
25550;DHT22;13444;50.562;7.262;2024-02-28T01:40:00;5.90;99.90
25550;DHT22;13444;50.562;7.262;2024-02-28T01:42:26;5.90;99.90
25550;DHT22;13444;50.562;7.262;2024-02-28T01:44:51;5.90;99.90
25550;DHT22;13444;50.562;7.262;2024-02-28T01:47:18;5.90;99.90
25550;DHT22;13444;50.562;7.262;2024-02-28T01:49:44;5.90;99.90
25550;DHT22;13444;50.562;7.262;2024-02-28T01:52:11;5.90;99.90
25550;DHT22;13444;50.562;7.262;2024-02-28T01:54:38;5.90;99.90
25550;DHT22;13444;50.562;7.262;2024-02-28T01:57:05;5.90;99.90
25550;DHT22;13444;50.562;7.262;2024-02-28T01:59:31;5.80;99.90
25550;DHT22;13444;50.562;7.262;2024-02-28T02:02:00;5.80;99.90
25550;DHT22;13444;50.562;7.262;2024-02-28T02:04:26;5.80;99.90
25550;DHT22;13444;50.562;7.262;2024-02-28T02:06:51;5.70;99.90
25550;DHT22;13444;50.562;7.262;2024-02-28T02:09:19;5.70;99.90
25550;DHT22;13444;50.562;7.262;2024-02-28T02:11:45;5.60;99.90
25550;DHT22;13444;50.562;7.262;2024-02-28T02:14:10;5.60;99.90
25550;DHT22;13444;50.562;7.262;2024-02-28T02:16:36;5.60;99.90
25550;DHT22;13444;50.562;7.262;2024-02-28T02:19:02;5.60;99.90
25550;DHT22;13444;50.562;7.262;2024-02-28T02:21:34;5.60;99.90
25550;DHT22;13444;50.562;7.262;2024-02-28T02:24:02;5.60;99.90
25550;DHT22;13444;50.562;7.262;2024-02-28T02:26:27;5.70;99.90
25550;DHT22;13444;50.562;7.262;2024-02-28T02:28:53;5.60;99.90
25550;DHT22;13444;50.562;7.262;2024-02-28T02:31:19;5.60;99.90
25550;DHT22;13444;50.562;7.262;2024-02-28T02:33:44;5.60;99.90
25550;DHT22;13444;50.562;7.262;2024-02-28T02:36:10;5.60;99.90
25550;DHT22;13444;50.562;7.262;2024-02-28T02:38:35;5.60;99.90
25550;DHT22;13444;50.562;7.262;2024-02-28T02:41:01;5.60;99.90
25550;DHT22;13444;50.562;7.262;2024-02-28T02:43:26;5.60;99.90
25550;DHT22;13444;50.562;7.262;2024-02-28T02:45:52;5.60;99.90
25550;DHT22;13444;50.562;7.262;2024-02-28T02:48:17;5.60;99.90
25550;DHT22;13444;50.562;7.262;2024-02-28T02:50:43;5.60;99.90
25550;DHT22;13444;50.562;7.262;2024-02-28T02:53:10;5.60;99.90
25550;DHT22;13444;50.562;7.262;2024-02-28T02:55:36;5.60;99.90
25550;DHT22;13444;50.562;7.262;2024-02-28T02:58:15;5.60;99.90
25550;DHT22;13444;50.562;7.262;2024-02-28T03:00:41;5.60;99.90
25550;DHT22;13444;50.562;7.262;2024-02-28T03:03:06;5.60;99.90
25550;DHT22;13444;50.562;7.262;2024-02-28T03:05:32;5.50;99.90
25550;DHT22;13444;50.562;7.262;2024-02-28T03:07:57;5.50;99.90
25550;DHT22;13444;50.562;7.262;2024-02-28T03:10:23;5.50;99.90
25550;DHT22;13444;50.562;7.262;2024-02-28T03:12:48;5.50;99.90
25550;DHT22;13444;50.562;7.262;2024-02-28T03:15:14;5.50;99.90
25550;DHT22;13444;50.562;7.262;2024-02-28T03:17:39;5.50;99.90
25550;DHT22;13444;50.562;7.262;2024-02-28T03:20:05;5.50;99.90
25550;DHT22;13444;50.562;7.262;2024-02-28T03:22:32;5.50;99.90
25550;DHT22;13444;50.562;7.262;2024-02-28T03:24:58;5.60;99.90
25550;DHT22;13444;50.562;7.262;2024-02-28T03:27:24;5.60;99.90
25550;DHT22;13444;50.562;7.262;2024-02-28T03:29:49;5.60;99.90
25550;DHT22;13444;50.562;7.262;2024-02-28T03:32:15;5.60;99.90
25550;DHT22;13444;50.562;7.262;2024-02-28T03:34:40;5.60;99.90
25550;DHT22;13444;50.562;7.262;2024-02-28T03:37:06;5.60;99.90
25550;DHT22;13444;50.562;7.262;2024-02-28T03:39:31;5.60;99.90
25550;DHT22;13444;50.562;7.262;2024-02-28T03:41:57;5.60;99.90
25550;DHT22;13444;50.562;7.262;2024-02-28T03:44:22;5.60;99.90
25550;DHT22;13444;50.562;7.262;2024-02-28T03:46:48;5.60;99.90
25550;DHT22;13444;50.562;7.262;2024-02-28T03:49:13;5.60;99.90
25550;DHT22;13444;50.562;7.262;2024-02-28T03:51:40;5.60;99.90
25550;DHT22;13444;50.562;7.262;2024-02-28T03:54:06;5.60;99.90
25550;DHT22;13444;50.562;7.262;2024-02-28T03:56:32;5.60;99.90
25550;DHT22;13444;50.562;7.262;2024-02-28T03:58:57;5.60;99.90
25550;DHT22;13444;50.562;7.262;2024-02-28T04:01:22;5.60;99.90
25550;DHT22;13444;50.562;7.262;2024-02-28T04:03:48;5.50;99.90
25550;DHT22;13444;50.562;7.262;2024-02-28T04:06:13;5.50;99.90
25550;DHT22;13444;50.562;7.262;2024-02-28T04:08:41;5.50;99.90
25550;DHT22;13444;50.562;7.262;2024-02-28T04:11:06;5.50;99.90
25550;DHT22;13444;50.562;7.262;2024-02-28T04:13:32;5.50;99.90
25550;DHT22;13444;50.562;7.262;2024-02-28T04:15:58;5.50;99.90
25550;DHT22;13444;50.562;7.262;2024-02-28T04:18:23;5.50;99.90
25550;DHT22;13444;50.562;7.262;2024-02-28T04:20:49;5.50;99.90
25550;DHT22;13444;50.562;7.262;2024-02-28T04:23:14;5.50;99.90
25550;DHT22;13444;50.562;7.262;2024-02-28T04:25:40;5.50;99.90
25550;DHT22;13444;50.562;7.262;2024-02-28T04:28:06;5.50;99.90
25550;DHT22;13444;50.562;7.262;2024-02-28T04:30:34;5.40;99.90
25550;DHT22;13444;50.562;7.262;2024-02-28T04:32:59;5.40;99.90
25550;DHT22;13444;50.562;7.262;2024-02-28T04:35:25;5.40;99.90
25550;DHT22;13444;50.562;7.262;2024-02-28T04:37:50;5.40;99.90
25550;DHT22;13444;50.562;7.262;2024-02-28T04:40:16;5.40;99.90
25550;DHT22;13444;50.562;7.262;2024-02-28T04:42:42;5.30;99.90
25550;DHT22;13444;50.562;7.262;2024-02-28T04:45:09;5.30;99.90
25550;DHT22;13444;50.562;7.262;2024-02-28T04:47:34;5.30;99.90
25550;DHT22;13444;50.562;7.262;2024-02-28T04:50:00;5.30;99.90
25550;DHT22;13444;50.562;7.262;2024-02-28T04:52:25;5.30;99.90
25550;DHT22;13444;50.562;7.262;2024-02-28T04:54:52;5.30;99.90
25550;DHT22;13444;50.562;7.262;2024-02-28T04:57:18;5.30;99.90
25550;DHT22;13444;50.562;7.262;2024-02-28T04:59:45;5.40;99.90
25550;DHT22;13444;50.562;7.262;2024-02-28T05:02:11;5.30;99.90
25550;DHT22;13444;50.562;7.262;2024-02-28T05:04:37;5.20;99.90
25550;DHT22;13444;50.562;7.262;2024-02-28T05:07:02;5.20;99.90
25550;DHT22;13444;50.562;7.262;2024-02-28T05:09:29;5.20;99.90
25550;DHT22;13444;50.562;7.262;2024-02-28T05:11:54;5.20;99.90
25550;DHT22;13444;50.562;7.262;2024-02-28T05:14:20;5.20;99.90
25550;DHT22;13444;50.562;7.262;2024-02-28T05:16:47;5.20;99.90
25550;DHT22;13444;50.562;7.262;2024-02-28T05:19:13;5.30;99.90
25550;DHT22;13444;50.562;7.262;2024-02-28T05:21:42;5.30;99.90
25550;DHT22;13444;50.562;7.262;2024-02-28T05:24:08;5.30;99.90
25550;DHT22;13444;50.562;7.262;2024-02-28T05:26:35;5.30;99.90
25550;DHT22;13444;50.562;7.262;2024-02-28T05:29:01;5.30;99.90
25550;DHT22;13444;50.562;7.262;2024-02-28T05:31:27;5.30;99.90
25550;DHT22;13444;50.562;7.262;2024-02-28T05:33:54;5.30;99.90
25550;DHT22;13444;50.562;7.262;2024-02-28T05:36:21;5.30;99.90
25550;DHT22;13444;50.562;7.262;2024-02-28T05:38:47;5.30;99.90
25550;DHT22;13444;50.562;7.262;2024-02-28T05:41:13;5.30;99.90
25550;DHT22;13444;50.562;7.262;2024-02-28T05:43:40;5.30;99.90
25550;DHT22;13444;50.562;7.262;2024-02-28T05:46:06;5.30;99.90
25550;DHT22;13444;50.562;7.262;2024-02-28T05:48:31;5.20;99.90
25550;DHT22;13444;50.562;7.262;2024-02-28T05:50:57;5.30;99.90
25550;DHT22;13444;50.562;7.262;2024-02-28T05:53:22;5.20;99.90
25550;DHT22;13444;50.562;7.262;2024-02-28T05:55:54;5.20;99.90
25550;DHT22;13444;50.562;7.262;2024-02-28T05:58:22;5.20;99.90
25550;DHT22;13444;50.562;7.262;2024-02-28T06:00:48;5.20;99.90
25550;DHT22;13444;50.562;7.262;2024-02-28T06:03:14;5.30;99.90
25550;DHT22;13444;50.562;7.262;2024-02-28T06:05:40;5.20;99.90
25550;DHT22;13444;50.562;7.262;2024-02-28T06:08:06;5.20;99.90
25550;DHT22;13444;50.562;7.262;2024-02-28T06:10:31;5.20;99.90
25550;DHT22;13444;50.562;7.262;2024-02-28T06:12:57;5.30;99.90
25550;DHT22;13444;50.562;7.262;2024-02-28T06:15:22;5.30;99.90
25550;DHT22;13444;50.562;7.262;2024-02-28T06:17:48;5.20;99.90
25550;DHT22;13444;50.562;7.262;2024-02-28T06:20:13;5.30;99.90
25550;DHT22;13444;50.562;7.262;2024-02-28T06:22:39;5.30;99.90
25550;DHT22;13444;50.562;7.262;2024-02-28T06:25:06;5.20;99.90
25550;DHT22;13444;50.562;7.262;2024-02-28T06:27:36;5.30;99.90
25550;DHT22;13444;50.562;7.262;2024-02-28T06:30:02;5.30;99.90
25550;DHT22;13444;50.562;7.262;2024-02-28T06:32:28;5.30;99.90
25550;DHT22;13444;50.562;7.262;2024-02-28T06:34:54;5.30;99.90
25550;DHT22;13444;50.562;7.262;2024-02-28T06:37:19;5.30;99.90
25550;DHT22;13444;50.562;7.262;2024-02-28T06:39:45;5.30;99.90
25550;DHT22;13444;50.562;7.262;2024-02-28T06:42:10;5.30;99.90
25550;DHT22;13444;50.562;7.262;2024-02-28T06:44:36;5.40;99.90
25550;DHT22;13444;50.562;7.262;2024-02-28T06:47:01;5.40;99.90
25550;DHT22;13444;50.562;7.262;2024-02-28T06:49:27;5.40;99.90
25550;DHT22;13444;50.562;7.262;2024-02-28T06:51:52;5.30;99.90
25550;DHT22;13444;50.562;7.262;2024-02-28T06:54:19;5.30;99.90
25550;DHT22;13444;50.562;7.262;2024-02-28T06:56:45;5.30;99.90
25550;DHT22;13444;50.562;7.262;2024-02-28T06:59:11;5.30;99.90
25550;DHT22;13444;50.562;7.262;2024-02-28T07:01:36;5.30;99.90
25550;DHT22;13444;50.562;7.262;2024-02-28T07:04:02;5.30;99.90
25550;DHT22;13444;50.562;7.262;2024-02-28T07:06:28;5.30;99.90
25550;DHT22;13444;50.562;7.262;2024-02-28T07:08:53;5.30;99.90
25550;DHT22;13444;50.562;7.262;2024-02-28T07:11:19;5.40;99.90
25550;DHT22;13444;50.562;7.262;2024-02-28T07:13:44;5.40;99.90
25550;DHT22;13444;50.562;7.262;2024-02-28T07:16:10;5.40;99.90
25550;DHT22;13444;50.562;7.262;2024-02-28T07:18:35;5.30;99.90
25550;DHT22;13444;50.562;7.262;2024-02-28T07:21:01;5.30;99.90
25550;DHT22;13444;50.562;7.262;2024-02-28T07:23:27;5.20;99.90
25550;DHT22;13444;50.562;7.262;2024-02-28T07:25:52;5.20;99.90
25550;DHT22;13444;50.562;7.262;2024-02-28T07:28:18;5.10;99.90
25550;DHT22;13444;50.562;7.262;2024-02-28T07:30:43;5.20;99.90
25550;DHT22;13444;50.562;7.262;2024-02-28T07:33:11;5.20;99.90
25550;DHT22;13444;50.562;7.262;2024-02-28T07:35:46;5.20;99.90
25550;DHT22;13444;50.562;7.262;2024-02-28T07:38:12;5.20;99.90
25550;DHT22;13444;50.562;7.262;2024-02-28T07:40:37;5.30;99.90
25550;DHT22;13444;50.562;7.262;2024-02-28T07:43:03;5.30;99.90
25550;DHT22;13444;50.562;7.262;2024-02-28T07:45:29;5.40;99.90
25550;DHT22;13444;50.562;7.262;2024-02-28T07:47:54;5.40;99.90
25550;DHT22;13444;50.562;7.262;2024-02-28T07:50:20;5.40;99.90
25550;DHT22;13444;50.562;7.262;2024-02-28T07:52:45;5.40;99.90
25550;DHT22;13444;50.562;7.262;2024-02-28T07:55:11;5.40;99.90
25550;DHT22;13444;50.562;7.262;2024-02-28T07:57:36;5.50;99.90
25550;DHT22;13444;50.562;7.262;2024-02-28T08:00:02;5.50;99.90
25550;DHT22;13444;50.562;7.262;2024-02-28T08:02:28;5.50;99.90
25550;DHT22;13444;50.562;7.262;2024-02-28T08:04:53;5.50;99.90
25550;DHT22;13444;50.562;7.262;2024-02-28T08:07:19;5.50;99.90
25550;DHT22;13444;50.562;7.262;2024-02-28T08:09:44;5.60;99.90
25550;DHT22;13444;50.562;7.262;2024-02-28T08:12:10;5.60;99.90
25550;DHT22;13444;50.562;7.262;2024-02-28T08:14:35;5.60;99.90
25550;DHT22;13444;50.562;7.262;2024-02-28T08:17:01;5.60;99.90
25550;DHT22;13444;50.562;7.262;2024-02-28T08:19:26;5.70;99.90
25550;DHT22;13444;50.562;7.262;2024-02-28T08:21:52;5.70;99.90
25550;DHT22;13444;50.562;7.262;2024-02-28T08:24:17;5.70;99.90
25550;DHT22;13444;50.562;7.262;2024-02-28T08:26:43;5.80;99.90
25550;DHT22;13444;50.562;7.262;2024-02-28T08:29:09;5.80;99.90
25550;DHT22;13444;50.562;7.262;2024-02-28T08:31:40;5.70;99.90
25550;DHT22;13444;50.562;7.262;2024-02-28T08:34:06;5.70;99.90
25550;DHT22;13444;50.562;7.262;2024-02-28T08:36:31;5.70;99.90
25550;DHT22;13444;50.562;7.262;2024-02-28T08:38:57;5.70;99.90
25550;DHT22;13444;50.562;7.262;2024-02-28T08:41:22;5.80;99.90
25550;DHT22;13444;50.562;7.262;2024-02-28T08:43:48;5.80;99.90
25550;DHT22;13444;50.562;7.262;2024-02-28T08:46:14;5.80;99.90
25550;DHT22;13444;50.562;7.262;2024-02-28T08:48:41;5.80;99.90
25550;DHT22;13444;50.562;7.262;2024-02-28T08:51:07;5.70;99.90
25550;DHT22;13444;50.562;7.262;2024-02-28T08:53:32;5.70;99.90
25550;DHT22;13444;50.562;7.262;2024-02-28T08:55:58;5.60;99.90
25550;DHT22;13444;50.562;7.262;2024-02-28T08:58:24;5.70;99.90
25550;DHT22;13444;50.562;7.262;2024-02-28T09:00:49;5.70;99.90
25550;DHT22;13444;50.562;7.262;2024-02-28T09:03:15;5.70;99.90
25550;DHT22;13444;50.562;7.262;2024-02-28T09:05:40;5.70;99.90
25550;DHT22;13444;50.562;7.262;2024-02-28T09:08:06;5.60;99.90
25550;DHT22;13444;50.562;7.262;2024-02-28T09:10:31;5.70;99.90
25550;DHT22;13444;50.562;7.262;2024-02-28T09:13:00;5.80;99.90
25550;DHT22;13444;50.562;7.262;2024-02-28T09:15:25;5.80;99.90
25550;DHT22;13444;50.562;7.262;2024-02-28T09:17:51;5.80;99.90
25550;DHT22;13444;50.562;7.262;2024-02-28T09:20:16;5.80;99.90
25550;DHT22;13444;50.562;7.262;2024-02-28T09:22:42;5.90;99.90
25550;DHT22;13444;50.562;7.262;2024-02-28T09:25:08;5.90;99.90
25550;DHT22;13444;50.562;7.262;2024-02-28T09:27:34;5.80;99.90
25550;DHT22;13444;50.562;7.262;2024-02-28T09:30:01;5.90;99.90
25550;DHT22;13444;50.562;7.262;2024-02-28T09:32:28;6.00;99.90
25550;DHT22;13444;50.562;7.262;2024-02-28T09:34:53;6.10;99.90
25550;DHT22;13444;50.562;7.262;2024-02-28T09:37:18;6.20;99.90
25550;DHT22;13444;50.562;7.262;2024-02-28T09:39:46;6.30;99.90
25550;DHT22;13444;50.562;7.262;2024-02-28T09:42:11;6.30;99.90
25550;DHT22;13444;50.562;7.262;2024-02-28T09:44:39;6.30;99.90
25550;DHT22;13444;50.562;7.262;2024-02-28T09:47:05;6.40;99.90
25550;DHT22;13444;50.562;7.262;2024-02-28T09:49:31;6.40;99.90
25550;DHT22;13444;50.562;7.262;2024-02-28T09:51:58;6.50;99.90
25550;DHT22;13444;50.562;7.262;2024-02-28T09:54:24;6.70;99.90
25550;DHT22;13444;50.562;7.262;2024-02-28T09:56:51;6.80;99.90
25550;DHT22;13444;50.562;7.262;2024-02-28T09:59:18;7.00;99.90
25550;DHT22;13444;50.562;7.262;2024-02-28T10:01:48;7.20;99.90
25550;DHT22;13444;50.562;7.262;2024-02-28T10:04:15;7.20;99.90
25550;DHT22;13444;50.562;7.262;2024-02-28T10:06:41;7.30;99.90
25550;DHT22;13444;50.562;7.262;2024-02-28T10:09:07;7.40;99.90
25550;DHT22;13444;50.562;7.262;2024-02-28T10:11:33;7.30;99.90
25550;DHT22;13444;50.562;7.262;2024-02-28T10:14:00;7.40;99.90
25550;DHT22;13444;50.562;7.262;2024-02-28T10:16:27;7.40;99.90
25550;DHT22;13444;50.562;7.262;2024-02-28T10:18:52;7.50;99.90
25550;DHT22;13444;50.562;7.262;2024-02-28T10:21:18;7.60;99.90
25550;DHT22;13444;50.562;7.262;2024-02-28T10:23:44;7.80;99.90
25550;DHT22;13444;50.562;7.262;2024-02-28T10:26:11;8.20;99.90
25550;DHT22;13444;50.562;7.262;2024-02-28T10:28:38;8.60;99.90
25550;DHT22;13444;50.562;7.262;2024-02-28T10:31:05;9.10;97.90
25550;DHT22;13444;50.562;7.262;2024-02-28T10:33:32;9.10;77.70
25550;DHT22;13444;50.562;7.262;2024-02-28T10:35:59;9.30;92.60
25550;DHT22;13444;50.562;7.262;2024-02-28T10:38:26;9.70;92.10
25550;DHT22;13444;50.562;7.262;2024-02-28T10:40:53;10.10;61.50
25550;DHT22;13444;50.562;7.262;2024-02-28T10:43:20;10.40;65.40
25550;DHT22;13444;50.562;7.262;2024-02-28T10:45:46;10.80;57.60
25550;DHT22;13444;50.562;7.262;2024-02-28T10:48:14;11.10;49.90
25550;DHT22;13444;50.562;7.262;2024-02-28T10:50:40;11.30;33.30
25550;DHT22;13444;50.562;7.262;2024-02-28T10:53:13;11.50;37.10
25550;DHT22;13444;50.562;7.262;2024-02-28T10:55:40;11.70;25.20
25550;DHT22;13444;50.562;7.262;2024-02-28T10:58:10;11.90;23.10
25550;DHT22;13444;50.562;7.262;2024-02-28T11:00:36;12.10;23.70
25550;DHT22;13444;50.562;7.262;2024-02-28T11:03:04;12.40;3.70
25550;DHT22;13444;50.562;7.262;2024-02-28T11:05:41;12.60;1.00
25550;DHT22;13444;50.562;7.262;2024-02-28T11:08:10;12.20;1.00
25550;DHT22;13444;50.562;7.262;2024-02-28T11:10:43;12.30;1.00
25550;DHT22;13444;50.562;7.262;2024-02-28T11:13:10;12.10;1.00
25550;DHT22;13444;50.562;7.262;2024-02-28T11:15:46;12.00;1.00
25550;DHT22;13444;50.562;7.262;2024-02-28T11:18:11;12.10;1.00
25550;DHT22;13444;50.562;7.262;2024-02-28T11:20:38;12.10;1.00
25550;DHT22;13444;50.562;7.262;2024-02-28T11:23:06;12.40;1.00
25550;DHT22;13444;50.562;7.262;2024-02-28T11:25:31;12.50;1.00
25550;DHT22;13444;50.562;7.262;2024-02-28T11:27:57;12.40;1.00
25550;DHT22;13444;50.562;7.262;2024-02-28T11:30:25;12.40;1.00
25550;DHT22;13444;50.562;7.262;2024-02-28T11:32:52;12.20;1.00
25550;DHT22;13444;50.562;7.262;2024-02-28T11:35:19;12.20;1.00
25550;DHT22;13444;50.562;7.262;2024-02-28T11:37:47;12.40;1.00
25550;DHT22;13444;50.562;7.262;2024-02-28T11:40:14;12.40;1.00
25550;DHT22;13444;50.562;7.262;2024-02-28T11:42:40;12.60;1.00
25550;DHT22;13444;50.562;7.262;2024-02-28T11:45:06;12.70;1.00
25550;DHT22;13444;50.562;7.262;2024-02-28T11:47:35;12.90;1.00
25550;DHT22;13444;50.562;7.262;2024-02-28T11:50:04;13.20;1.00
25550;DHT22;13444;50.562;7.262;2024-02-28T11:52:33;12.90;1.00
25550;DHT22;13444;50.562;7.262;2024-02-28T11:54:59;12.90;1.00
25550;DHT22;13444;50.562;7.262;2024-02-28T11:57:25;13.00;1.00
25550;DHT22;13444;50.562;7.262;2024-02-28T11:59:51;13.20;1.00
25550;DHT22;13444;50.562;7.262;2024-02-28T12:02:17;13.40;1.00
25550;DHT22;13444;50.562;7.262;2024-02-28T12:04:44;13.20;1.00
25550;DHT22;13444;50.562;7.262;2024-02-28T12:07:09;13.20;1.00
25550;DHT22;13444;50.562;7.262;2024-02-28T12:09:35;13.00;1.00
25550;DHT22;13444;50.562;7.262;2024-02-28T12:12:01;12.80;1.00
25550;DHT22;13444;50.562;7.262;2024-02-28T12:14:27;12.90;1.00
25550;DHT22;13444;50.562;7.262;2024-02-28T12:16:53;12.90;1.00
25550;DHT22;13444;50.562;7.262;2024-02-28T12:19:18;12.80;1.00
25550;DHT22;13444;50.562;7.262;2024-02-28T12:21:46;13.00;1.00
25550;DHT22;13444;50.562;7.262;2024-02-28T12:24:13;13.20;1.00
25550;DHT22;13444;50.562;7.262;2024-02-28T12:26:39;13.20;1.00
25550;DHT22;13444;50.562;7.262;2024-02-28T12:29:05;13.30;1.00
25550;DHT22;13444;50.562;7.262;2024-02-28T12:31:30;13.10;1.00
25550;DHT22;13444;50.562;7.262;2024-02-28T12:33:56;12.80;1.00
25550;DHT22;13444;50.562;7.262;2024-02-28T12:36:21;12.50;1.00
25550;DHT22;13444;50.562;7.262;2024-02-28T12:38:47;12.40;1.00
25550;DHT22;13444;50.562;7.262;2024-02-28T12:41:13;12.20;1.00
25550;DHT22;13444;50.562;7.262;2024-02-28T12:43:39;11.90;1.00
25550;DHT22;13444;50.562;7.262;2024-02-28T12:46:05;11.60;1.00
25550;DHT22;13444;50.562;7.262;2024-02-28T12:48:31;11.60;8.00
25550;DHT22;13444;50.562;7.262;2024-02-28T12:50:57;11.70;4.30
25550;DHT22;13444;50.562;7.262;2024-02-28T12:53:23;11.80;1.00
25550;DHT22;13444;50.562;7.262;2024-02-28T12:55:48;11.50;1.00
25550;DHT22;13444;50.562;7.262;2024-02-28T12:58:13;11.50;1.20
25550;DHT22;13444;50.562;7.262;2024-02-28T13:00:39;11.60;4.50
25550;DHT22;13444;50.562;7.262;2024-02-28T13:03:05;11.60;1.00
25550;DHT22;13444;50.562;7.262;2024-02-28T13:05:31;11.40;1.00
25550;DHT22;13444;50.562;7.262;2024-02-28T13:07:57;11.30;1.00
25550;DHT22;13444;50.562;7.262;2024-02-28T13:10:22;11.20;14.40
25550;DHT22;13444;50.562;7.262;2024-02-28T13:12:48;11.20;3.20
25550;DHT22;13444;50.562;7.262;2024-02-28T13:15:14;11.00;10.00
25550;DHT22;13444;50.562;7.262;2024-02-28T13:17:39;11.10;13.80
25550;DHT22;13444;50.562;7.262;2024-02-28T13:20:07;11.00;16.60
25550;DHT22;13444;50.562;7.262;2024-02-28T13:22:33;10.90;25.00
25550;DHT22;13444;50.562;7.262;2024-02-28T13:24:58;10.80;23.10
25550;DHT22;13444;50.562;7.262;2024-02-28T13:27:24;10.90;26.30
25550;DHT22;13444;50.562;7.262;2024-02-28T13:29:50;10.80;18.70
25550;DHT22;13444;50.562;7.262;2024-02-28T13:32:16;10.80;25.10
25550;DHT22;13444;50.562;7.262;2024-02-28T13:34:41;10.80;16.00
25550;DHT22;13444;50.562;7.262;2024-02-28T13:37:07;10.70;24.20
25550;DHT22;13444;50.562;7.262;2024-02-28T13:39:32;10.70;32.00
25550;DHT22;13444;50.562;7.262;2024-02-28T13:41:59;10.70;35.00
25550;DHT22;13444;50.562;7.262;2024-02-28T13:44:25;10.70;35.20
25550;DHT22;13444;50.562;7.262;2024-02-28T13:46:53;10.70;22.50
25550;DHT22;13444;50.562;7.262;2024-02-28T13:49:19;10.70;31.00
25550;DHT22;13444;50.562;7.262;2024-02-28T13:51:45;10.70;42.50
25550;DHT22;13444;50.562;7.262;2024-02-28T13:54:10;10.70;42.30
25550;DHT22;13444;50.562;7.262;2024-02-28T13:56:36;10.70;36.20
25550;DHT22;13444;50.562;7.262;2024-02-28T13:59:03;10.60;27.00
25550;DHT22;13444;50.562;7.262;2024-02-28T14:01:28;10.60;31.60
25550;DHT22;13444;50.562;7.262;2024-02-28T14:03:54;10.70;28.20
25550;DHT22;13444;50.562;7.262;2024-02-28T14:06:20;10.70;24.00
25550;DHT22;13444;50.562;7.262;2024-02-28T14:08:45;10.70;21.60
25550;DHT22;13444;50.562;7.262;2024-02-28T14:11:11;10.80;18.50
25550;DHT22;13444;50.562;7.262;2024-02-28T14:13:37;10.80;19.60
25550;DHT22;13444;50.562;7.262;2024-02-28T14:16:05;10.80;26.30
25550;DHT22;13444;50.562;7.262;2024-02-28T14:18:31;10.90;25.80
25550;DHT22;13444;50.562;7.262;2024-02-28T14:20:56;10.80;13.10
25550;DHT22;13444;50.562;7.262;2024-02-28T14:23:22;10.80;20.90
25550;DHT22;13444;50.562;7.262;2024-02-28T14:25:47;10.70;25.20
25550;DHT22;13444;50.562;7.262;2024-02-28T14:28:13;10.80;33.50
25550;DHT22;13444;50.562;7.262;2024-02-28T14:30:39;10.80;24.10
25550;DHT22;13444;50.562;7.262;2024-02-28T14:33:04;10.90;28.70
25550;DHT22;13444;50.562;7.262;2024-02-28T14:35:30;10.80;21.40
25550;DHT22;13444;50.562;7.262;2024-02-28T14:37:55;10.80;20.60
25550;DHT22;13444;50.562;7.262;2024-02-28T14:40:21;10.70;28.20
25550;DHT22;13444;50.562;7.262;2024-02-28T14:42:46;10.70;29.40
25550;DHT22;13444;50.562;7.262;2024-02-28T14:45:13;10.70;26.30
25550;DHT22;13444;50.562;7.262;2024-02-28T14:47:42;10.60;22.20
25550;DHT22;13444;50.562;7.262;2024-02-28T14:50:08;10.70;18.70
25550;DHT22;13444;50.562;7.262;2024-02-28T14:52:37;10.60;19.60
25550;DHT22;13444;50.562;7.262;2024-02-28T14:55:06;10.60;18.10
25550;DHT22;13444;50.562;7.262;2024-02-28T14:57:33;10.40;13.60
25550;DHT22;13444;50.562;7.262;2024-02-28T14:59:59;10.50;16.30
25550;DHT22;13444;50.562;7.262;2024-02-28T15:02:24;10.40;16.30
25550;DHT22;13444;50.562;7.262;2024-02-28T15:04:50;10.40;13.90
25550;DHT22;13444;50.562;7.262;2024-02-28T15:07:16;10.50;12.70
25550;DHT22;13444;50.562;7.262;2024-02-28T15:09:41;10.50;10.90
25550;DHT22;13444;50.562;7.262;2024-02-28T15:12:07;10.50;9.50
25550;DHT22;13444;50.562;7.262;2024-02-28T15:14:33;10.50;4.40
25550;DHT22;13444;50.562;7.262;2024-02-28T15:16:59;10.40;1.50
25550;DHT22;13444;50.562;7.262;2024-02-28T15:19:25;10.40;10.50
25550;DHT22;13444;50.562;7.262;2024-02-28T15:21:52;10.40;10.70
25550;DHT22;13444;50.562;7.262;2024-02-28T15:24:18;10.30;13.40
25550;DHT22;13444;50.562;7.262;2024-02-28T15:26:43;10.40;10.90
25550;DHT22;13444;50.562;7.262;2024-02-28T15:29:09;10.40;11.60
25550;DHT22;13444;50.562;7.262;2024-02-28T15:31:35;10.30;16.80
25550;DHT22;13444;50.562;7.262;2024-02-28T15:34:01;10.40;8.70